Time;durP1;ratioP1;P1;durP2;ratioP2;P2;SDS_P1;SDS_P2;PMS_P1;PMS_P2;Temp;Humidity;BMP_temperature;BMP_pressure;BME280_temperature;BME280_humidity;BME280_pressure;Samples;Min_cycle;Max_cycle;Signal;HPM_P1;HPM_P2
2024/03/29 00:00:50;;;;;;;3.38;0.82;;;;;;;11.67;55.31;99004.84;5250730;28;20041;-78
2024/03/29 00:03:24;;;;;;;3.10;0.90;;;;;;;11.58;56.15;98992.78;5252974;28;20033;-79
2024/03/29 00:05:55;;;;;;;2.55;0.77;;;;;;;11.68;56.14;99006.47;5253574;28;20468;-79
2024/03/29 00:08:27;;;;;;;3.10;0.70;;;;;;;11.66;55.76;98998.75;5252799;28;20025;-79
2024/03/29 00:10:59;;;;;;;3.65;0.90;;;;;;;11.63;55.65;98993.91;5254595;28;20044;-79
2024/03/29 00:13:32;;;;;;;3.22;0.65;;;;;;;11.57;56.29;98997.22;5255484;28;20230;-79
2024/03/29 00:16:04;;;;;;;3.53;1.00;;;;;;;11.64;55.21;99005.19;5235975;28;20063;-80
2024/03/29 00:18:35;;;;;;;4.53;0.90;;;;;;;11.54;55.68;98991.53;5250855;28;20314;-79
2024/03/29 00:21:07;;;;;;;4.00;1.13;;;;;;;11.56;55.70;99000.84;5252037;28;20033;-80
2024/03/29 00:23:40;;;;;;;3.63;0.80;;;;;;;11.57;55.38;99014.78;5251009;28;20031;-79
2024/03/29 00:26:12;;;;;;;5.32;1.20;;;;;;;11.51;56.38;99021.53;5250507;28;20020;-78
2024/03/29 00:28:44;;;;;;;3.35;0.90;;;;;;;11.52;54.63;99015.31;5252423;28;20032;-79
2024/03/29 00:31:16;;;;;;;3.80;1.00;;;;;;;11.45;55.15;99017.84;5257469;28;20029;-79
2024/03/29 00:33:48;;;;;;;3.67;0.95;;;;;;;11.50;55.23;99025.16;5251810;28;20047;-80
2024/03/29 00:36:20;;;;;;;2.97;0.80;;;;;;;11.50;55.37;99016.50;5249680;28;20246;-79
2024/03/29 00:38:51;;;;;;;7.03;0.95;;;;;;;11.44;54.70;99007.56;5247632;28;20486;-79
2024/03/29 00:41:23;;;;;;;4.15;1.02;;;;;;;11.47;55.31;99014.22;5247296;28;20425;-80
2024/03/29 00:43:55;;;;;;;5.10;1.08;;;;;;;11.48;54.81;99026.34;5245675;28;20057;-79
2024/03/29 00:46:27;;;;;;;4.88;0.98;;;;;;;11.39;55.53;99023.81;5246453;28;20039;-81
2024/03/29 00:48:59;;;;;;;2.88;1.00;;;;;;;11.47;55.79;99027.34;5225338;28;20049;-80
2024/03/29 00:51:31;;;;;;;3.45;1.05;;;;;;;11.42;55.11;99035.75;5244231;28;20032;-80
2024/03/29 00:54:03;;;;;;;5.78;1.10;;;;;;;11.39;55.31;99034.28;5246457;28;20037;-82
2024/03/29 00:56:35;;;;;;;3.28;0.80;;;;;;;11.45;55.19;99040.66;5246084;28;20036;-81
2024/03/29 00:59:06;;;;;;;4.03;1.17;;;;;;;11.43;55.05;99038.19;5245154;28;20764;-81
2024/03/29 01:01:38;;;;;;;3.80;0.70;;;;;;;11.39;55.00;99030.88;5247243;28;20044;-80
2024/03/29 01:04:11;;;;;;;2.75;0.82;;;;;;;11.45;55.11;99043.25;5244827;28;20041;-80
2024/03/29 01:06:43;;;;;;;3.43;1.00;;;;;;;11.40;54.86;99020.22;5245579;28;20039;-80
2024/03/29 01:09:14;;;;;;;6.00;1.00;;;;;;;11.41;54.65;99044.63;5245734;28;20033;-82
2024/03/29 01:11:46;;;;;;;5.03;0.88;;;;;;;11.39;54.95;99044.78;5249956;28;20288;-79
2024/03/29 01:14:18;;;;;;;3.42;0.93;;;;;;;11.24;56.17;99024.78;5249550;28;20028;-79
2024/03/29 01:16:50;;;;;;;3.75;0.88;;;;;;;11.36;54.94;99029.41;5249626;28;20039;-79
2024/03/29 01:19:22;;;;;;;4.50;1.05;;;;;;;11.29;56.09;99025.06;5247934;28;20028;-79
2024/03/29 01:21:54;;;;;;;2.90;0.93;;;;;;;11.32;55.39;99016.84;5244701;28;20029;-81
2024/03/29 01:24:26;;;;;;;6.07;0.80;;;;;;;11.27;56.26;99008.72;5244796;28;20453;-80
2024/03/29 01:26:58;;;;;;;3.22;0.70;;;;;;;11.25;56.84;99005.44;5245181;28;20029;-79
2024/03/29 01:29:30;;;;;;;2.25;0.68;;;;;;;11.25;56.44;99014.16;5243847;28;20032;-80
2024/03/29 01:32:02;;;;;;;4.05;0.95;;;;;;;11.12;57.43;98987.72;5244770;28;20037;-80
2024/03/29 01:34:34;;;;;;;3.13;0.70;;;;;;;11.17;56.76;98991.44;5246033;28;20433;-80
2024/03/29 01:37:06;;;;;;;4.60;0.70;;;;;;;11.14;56.40;98996.22;5244745;28;20473;-81
2024/03/29 01:39:38;;;;;;;3.08;1.00;;;;;;;11.18;56.38;98984.41;5244328;28;21020;-80
2024/03/29 01:42:10;;;;;;;3.17;0.70;;;;;;;11.13;57.52;98976.25;5244697;28;20032;-81
2024/03/29 01:44:42;;;;;;;5.95;1.10;;;;;;;11.07;57.66;98958.63;5246316;28;20059;-81
2024/03/29 01:47:14;;;;;;;1.58;0.90;;;;;;;11.13;57.41;98950.84;5252967;28;20450;-79
2024/03/29 01:49:46;;;;;;;2.55;0.90;;;;;;;11.14;57.43;98965.59;5251752;28;20032;-79
2024/03/29 01:52:19;;;;;;;3.70;0.75;;;;;;;11.13;57.81;98976.25;5253368;28;20032;-79
2024/03/29 01:54:51;;;;;;;;;;;;;;;11.90;55.78;98974.06;5252418;28;20482;-78
2024/03/29 01:57:23;;;;;;;2.67;0.98;;;;;;;11.19;56.45;98975.53;5243374;28;20243;-80
2024/03/29 01:59:56;;;;;;;4.93;1.10;;;;;;;11.15;57.47;98979.50;5244578;28;20028;-80
2024/03/29 02:02:28;;;;;;;2.55;0.93;;;;;;;11.16;57.42;98983.75;5244286;28;20537;-79
2024/03/29 02:05:01;;;;;;;3.00;1.00;;;;;;;11.18;56.91;98982.59;5244987;28;20072;-79
2024/03/29 02:07:34;;;;;;;2.28;0.60;;;;;;;11.18;57.88;98979.97;5245614;28;20044;-80
2024/03/29 02:10:08;;;;;;;8.65;1.10;;;;;;;11.22;57.24;98990.09;5241580;28;20041;-80
2024/03/29 02:12:40;;;;;;;2.80;0.73;;;;;;;11.20;57.76;98985.00;5244290;28;20025;-82
2024/03/29 02:15:17;;;;;;;2.97;0.68;;;;;;;11.34;57.57;98994.69;5245066;28;20040;-79
2024/03/29 02:17:51;;;;;;;3.28;0.82;;;;;;;11.22;57.92;99011.06;5243851;28;20041;-80
2024/03/29 02:20:23;;;;;;;;;;;;;;;11.91;55.32;99015.03;5243910;28;20032;-81
2024/03/29 02:22:59;;;;;;;3.50;0.65;;;;;;;11.39;57.62;99020.38;5245202;28;19928;-81
2024/03/29 02:25:31;;;;;;;2.13;0.70;;;;;;;11.21;57.48;98984.00;5244290;28;20447;-81
2024/03/29 02:28:04;;;;;;;2.55;0.80;;;;;;;11.27;58.00;99011.31;5244005;28;20028;-81
2024/03/29 02:30:36;;;;;;;5.13;0.67;;;;;;;11.29;57.49;99011.94;5244246;28;20033;-80
2024/03/29 02:33:07;;;;;;;2.95;0.90;;;;;;;11.32;58.26;99017.66;5244767;28;20048;-81
2024/03/29 02:35:39;;;;;;;2.22;0.70;;;;;;;11.31;57.78;99013.41;5243895;28;20036;-80
2024/03/29 02:38:11;;;;;;;3.30;0.70;;;;;;;11.36;57.93;99025.97;5241851;28;20037;-80
2024/03/29 02:40:43;;;;;;;3.03;0.70;;;;;;;11.37;57.72;99025.81;5240139;28;20036;-80
2024/03/29 02:43:15;;;;;;;3.47;0.70;;;;;;;11.41;57.54;99026.25;5244644;28;20036;-80
2024/03/29 02:45:47;;;;;;;5.28;1.00;;;;;;;11.44;57.35;99023.28;5243127;28;20025;-80
2024/03/29 02:48:19;;;;;;;2.22;0.70;;;;;;;11.42;57.65;99030.50;5242535;28;20086;-80
2024/03/29 02:50:51;;;;;;;2.90;0.90;;;;;;;11.39;58.13;99017.75;5244669;28;20029;-80
2024/03/29 02:53:23;;;;;;;3.28;0.85;;;;;;;11.57;57.21;99012.16;5242291;28;20033;-81
2024/03/29 02:55:55;;;;;;;3.63;0.70;;;;;;;11.55;57.87;99014.94;5241825;28;20038;-81
2024/03/29 02:58:26;;;;;;;3.20;0.95;;;;;;;11.56;58.17;99021.84;5243130;28;20127;-81
2024/03/29 03:01:05;;;;;;;2.58;0.70;;;;;;;11.72;57.89;99041.00;5225279;28;20163;-80
2024/03/29 03:03:37;;;;;;;2.83;0.82;;;;;;;11.65;57.33;99046.16;5244197;28;20483;-81
2024/03/29 03:06:09;;;;;;;2.45;0.50;;;;;;;11.69;57.72;99042.19;5244614;28;20033;-80
2024/03/29 03:11:31;;;;;;;3.28;1.25;;;;;;;11.72;57.86;99054.94;5243110;28;20033;-80
2024/03/29 03:14:03;;;;;;;3.85;1.33;;;;;;;11.79;58.33;99055.03;5243235;28;20036;-81
2024/03/29 03:16:35;;;;;;;2.45;0.77;;;;;;;11.71;58.47;99045.44;5244585;28;20508;-81
2024/03/29 03:19:07;;;;;;;2.45;0.65;;;;;;;11.79;60.35;99049.78;5245732;28;20041;-81
2024/03/29 03:21:39;;;;;;;1.52;0.80;;;;;;;11.79;60.99;99040.09;5229651;28;20047;-80
2024/03/29 03:24:11;;;;;;;2.00;0.65;;;;;;;11.77;60.85;99043.91;5247193;28;20132;-81
2024/03/29 03:26:43;;;;;;;1.65;0.50;;;;;;;11.77;62.64;99044.69;5247036;28;20033;-81
2024/03/29 03:29:15;;;;;;;2.60;0.90;;;;;;;11.73;63.13;99035.56;5248110;28;20390;-81
2024/03/29 03:31:47;;;;;;;2.53;0.80;;;;;;;11.72;63.67;99033.13;5247376;28;20047;-80
2024/03/29 03:34:19;;;;;;;1.77;0.40;;;;;;;11.72;63.60;99033.13;5249166;28;20033;-80
2024/03/29 03:36:51;;;;;;;2.17;0.70;;;;;;;11.68;65.51;99027.44;5249097;28;20037;-80
2024/03/29 03:39:23;;;;;;;1.55;0.70;;;;;;;11.67;64.65;99037.13;5248769;28;20041;-80
2024/03/29 03:41:55;;;;;;;2.10;0.55;;;;;;;11.67;64.90;99045.00;5248695;28;20048;-81
2024/03/29 03:44:28;;;;;;;1.48;0.60;;;;;;;11.62;66.31;99031.59;5229408;28;20075;-80
2024/03/29 03:47:01;;;;;;;3.67;0.90;;;;;;;11.59;67.50;99037.22;5248929;28;20051;-81
2024/03/29 03:49:33;;;;;;;3.05;0.70;;;;;;;11.66;66.65;99045.97;5227734;28;20041;-81
2024/03/29 03:52:05;;;;;;;2.13;0.60;;;;;;;11.53;67.71;99026.63;5246361;28;20050;-80
2024/03/29 03:54:36;;;;;;;2.35;0.75;;;;;;;11.55;69.51;99053.47;5247737;28;20036;-81
2024/03/29 03:57:08;;;;;;;2.75;0.63;;;;;;;11.53;67.74;99051.03;5248088;28;20725;-79
2024/03/29 03:59:41;;;;;;;2.17;0.77;;;;;;;11.50;68.89;99053.22;5247563;28;20037;-80
2024/03/29 04:02:12;;;;;;;2.30;0.60;;;;;;;11.53;69.02;99058.09;5247364;28;20040;-81
2024/03/29 04:04:48;;;;;;;2.88;0.70;;;;;;;11.59;70.54;99054.75;5246706;28;20028;-80
2024/03/29 04:07:20;;;;;;;3.15;0.90;;;;;;;11.52;73.63;99067.78;5244475;28;20146;-80
2024/03/29 04:09:52;;;;;;;4.35;0.80;;;;;;;11.47;75.81;99085.03;5247695;28;20378;-80
2024/03/29 04:12:23;;;;;;;2.80;0.93;;;;;;;11.44;75.27;99089.66;5243140;28;20033;-80
2024/03/29 04:14:55;;;;;;;3.40;1.10;;;;;;;11.35;79.40;99069.72;5248391;28;20037;-81
2024/03/29 04:17:27;;;;;;;2.38;0.68;;;;;;;11.31;83.71;99097.31;5249236;28;20035;-81
2024/03/29 04:19:59;;;;;;;3.20;0.65;;;;;;;11.10;88.94;99089.28;5246755;28;20033;-80
2024/03/29 04:22:31;;;;;;;2.63;0.73;;;;;;;11.14;90.37;99080.91;5246534;28;20045;-80
2024/03/29 04:25:03;;;;;;;2.53;0.75;;;;;;;11.04;95.76;99088.19;5246012;28;20029;-80
2024/03/29 04:27:35;;;;;;;2.60;0.80;;;;;;;11.04;98.45;99076.91;5245057;28;20052;-79
2024/03/29 04:30:07;;;;;;;1.98;0.55;;;;;;;10.92;100.00;99073.88;5229075;28;20045;-79
2024/03/29 04:32:39;;;;;;;2.45;0.70;;;;;;;10.95;100.00;99068.31;5245827;28;20048;-79
2024/03/29 04:35:11;;;;;;;3.13;0.68;;;;;;;10.91;100.00;99088.78;5245831;28;20033;-80
2024/03/29 04:37:43;;;;;;;2.97;1.10;;;;;;;10.89;100.00;99082.91;5248317;28;20032;-80
2024/03/29 04:40:15;;;;;;;2.40;0.95;;;;;;;10.85;100.00;99086.88;5247350;28;20395;-80
2024/03/29 04:42:47;;;;;;;2.38;0.60;;;;;;;10.84;100.00;99079.19;5246022;28;20029;-79
2024/03/29 04:45:19;;;;;;;2.50;0.65;;;;;;;10.81;100.00;99088.19;5220317;28;20499;-80
2024/03/29 04:47:51;;;;;;;2.33;0.65;;;;;;;10.78;100.00;99078.06;5219775;28;20041;-79
2024/03/29 04:50:23;;;;;;;1.95;0.52;;;;;;;10.73;100.00;99069.94;5220336;28;20041;-80
2024/03/29 04:52:55;;;;;;;1.92;0.50;;;;;;;10.73;100.00;99087.44;5218137;28;20040;-78
2024/03/29 04:55:27;;;;;;;2.78;0.60;;;;;;;10.67;100.00;99088.94;5221061;28;20040;-80
2024/03/29 04:57:58;;;;;;;1.58;0.70;;;;;;;10.60;100.00;99074.91;5220105;28;20061;-77
2024/03/29 05:00:30;;;;;;;2.13;0.60;;;;;;;10.60;100.00;99086.19;5217556;28;20124;-80
2024/03/29 05:03:03;;;;;;;1.75;0.55;;;;;;;10.57;100.00;99078.72;5216249;28;20033;-77
2024/03/29 05:05:35;;;;;;;1.57;0.70;;;;;;;10.63;100.00;99074.56;5218655;28;20036;-77
2024/03/29 05:08:07;;;;;;;2.58;0.70;;;;;;;10.60;100.00;99064.44;5216977;28;20034;-79
2024/03/29 05:10:42;;;;;;;1.67;0.60;;;;;;;10.67;100.00;99073.22;5218057;28;20475;-78
2024/03/29 05:13:14;;;;;;;2.50;0.88;;;;;;;10.56;100.00;99066.59;5218678;28;20052;-79
2024/03/29 05:15:47;;;;;;;3.03;0.70;;;;;;;10.59;100.00;99062.81;5219835;28;20036;-77
2024/03/29 05:18:19;;;;;;;3.60;0.60;;;;;;;10.59;100.00;99073.28;5219519;28;20415;-78
2024/03/29 05:20:51;;;;;;;2.97;0.75;;;;;;;10.56;100.00;99073.63;5220342;28;20064;-78
2024/03/29 05:23:23;;;;;;;1.20;0.60;;;;;;;10.51;100.00;99074.16;5218241;28;20033;-77
2024/03/29 05:25:55;;;;;;;2.30;0.57;;;;;;;10.51;100.00;99065.50;5221176;28;20795;-78
2024/03/29 05:28:27;;;;;;;2.55;0.60;;;;;;;10.53;100.00;99051.25;5220657;28;20033;-81
2024/03/29 05:31:12;;;;;;;2.72;0.52;;;;;;;10.76;100.00;99043.41;5219827;28;20043;-79
2024/03/29 05:33:45;;;;;;;1.30;0.50;;;;;;;10.47;100.00;99038.84;5217507;28;20680;-77
2024/03/29 05:36:18;;;;;;;1.90;0.60;;;;;;;10.53;100.00;99035.53;5218048;28;20042;-78
2024/03/29 05:38:50;;;;;;;2.20;0.90;;;;;;;10.47;100.00;99038.84;5214600;28;20379;-77
2024/03/29 05:41:23;;;;;;;2.38;0.63;;;;;;;10.46;100.00;99045.88;5219839;28;20037;-79
2024/03/29 05:43:55;;;;;;;1.17;0.50;;;;;;;10.43;100.00;99048.03;5226338;28;20049;-80
2024/03/29 05:46:26;;;;;;;3.03;0.60;;;;;;;10.43;100.00;99058.50;5244540;28;20032;-80
2024/03/29 05:48:58;;;;;;;2.42;0.50;;;;;;;10.39;100.00;99051.97;5244210;28;20147;-78
2024/03/29 05:51:30;;;;;;;2.75;0.50;;;;;;;10.42;100.00;99049.03;5246124;28;20037;-79
2024/03/29 05:54:05;;;;;;;1.92;0.60;;;;;;;10.47;100.00;99062.41;5244909;28;20043;-77
2024/03/29 05:56:37;;;;;;;2.80;0.57;;;;;;;10.38;100.00;99052.94;5245410;28;20028;-78
2024/03/29 05:59:09;;;;;;;1.85;0.52;;;;;;;10.43;100.00;99064.56;5245027;28;20037;-77
2024/03/29 06:01:41;;;;;;;1.67;0.50;;;;;;;10.44;100.00;99066.16;5247190;28;20049;-78
2024/03/29 06:04:18;;;;;;;2.33;0.70;;;;;;;10.44;100.00;99075.84;5246561;28;20043;-79
2024/03/29 06:06:50;;;;;;;2.05;0.52;;;;;;;10.46;100.00;99093.00;5249169;28;20937;-78
2024/03/29 06:09:22;;;;;;;2.70;0.80;;;;;;;10.47;100.00;99097.25;5250048;28;20047;-78
2024/03/29 06:11:55;;;;;;;1.23;0.45;;;;;;;10.48;100.00;99098.06;5248206;28;20028;-79
2024/03/29 06:17:23;;;;;;;1.63;0.43;;;;;;;10.49;100.00;99104.91;5248409;28;20040;-78
2024/03/29 06:19:57;;;;;;;1.92;0.50;;;;;;;10.41;100.00;99097.94;5249722;28;20033;-80
2024/03/29 06:22:30;;;;;;;2.20;0.70;;;;;;;10.46;100.00;99092.19;5247323;28;20036;-79
2024/03/29 06:25:05;;;;;;;2.13;0.50;;;;;;;10.46;100.00;99089.59;5246906;28;20048;-79
2024/03/29 06:27:38;;;;;;;1.65;0.70;;;;;;;10.52;100.00;99101.16;5244585;28;20043;-79
2024/03/29 06:30:10;;;;;;;1.90;0.70;;;;;;;10.51;100.00;99097.72;5246379;28;20028;-79
2024/03/29 06:32:42;;;;;;;1.90;0.52;;;;;;;10.53;100.00;99103.63;5245842;28;20379;-80
2024/03/29 06:35:14;;;;;;;1.63;0.65;;;;;;;10.56;100.00;99105.06;5245758;28;20029;-79
2024/03/29 06:37:46;;;;;;;2.67;0.70;;;;;;;10.56;100.00;99099.81;5245672;28;20710;-79
2024/03/29 06:40:17;;;;;;;2.35;0.55;;;;;;;10.52;100.00;99081.00;5245661;28;20041;-80
2024/03/29 06:42:49;;;;;;;1.33;0.43;;;;;;;10.60;100.00;99088.81;5244706;28;20036;-79
2024/03/29 06:45:21;;;;;;;2.22;0.77;;;;;;;10.64;100.00;99071.75;5245107;28;20053;-80
2024/03/29 06:47:53;;;;;;;2.55;0.60;;;;;;;10.61;100.00;99055.63;5242445;28;20025;-80
2024/03/29 06:50:25;;;;;;;2.40;0.73;;;;;;;10.65;100.00;99062.13;5245493;28;20025;-80
2024/03/29 06:52:57;;;;;;;2.75;0.80;;;;;;;10.65;100.00;99062.94;5245557;28;20320;-79
2024/03/29 06:55:29;;;;;;;2.25;0.60;;;;;;;10.61;100.00;99055.63;5228120;28;20040;-80
2024/03/29 06:58:01;;;;;;;1.73;0.65;;;;;;;10.70;100.00;99078.13;5250351;28;20043;-80
2024/03/29 07:00:33;;;;;;;2.60;0.73;;;;;;;10.78;100.00;99078.06;5227696;28;20040;-80
2024/03/29 07:03:05;;;;;;;2.42;0.70;;;;;;;10.78;100.00;99079.88;5245348;28;20494;-80
2024/03/29 07:05:36;;;;;;;2.35;0.90;;;;;;;10.81;100.00;99080.34;5243882;28;20041;-80
2024/03/29 07:08:08;;;;;;;2.05;0.75;;;;;;;10.86;100.00;99075.38;5245592;28;20039;-80
2024/03/29 07:10:40;;;;;;;2.35;0.70;;;;;;;10.87;100.00;99073.56;5227562;28;20040;-80
2024/03/29 07:13:12;;;;;;;2.65;0.90;;;;;;;10.96;100.00;99088.25;5227169;28;20399;-81
2024/03/29 07:15:51;;;;;;;1.45;0.60;;;;;;;11.13;100.00;99091.56;5244484;28;20107;-80
2024/03/29 07:18:23;;;;;;;1.80;0.70;;;;;;;11.00;100.00;99096.59;5246193;28;20041;-81
2024/03/29 07:20:55;;;;;;;1.70;0.65;;;;;;;10.96;100.00;99096.13;5247801;28;20033;-80
2024/03/29 07:23:27;;;;;;;2.50;1.20;;;;;;;11.04;100.00;99101.28;5247012;28;20040;-80
2024/03/29 07:26:01;;;;;;;1.90;0.90;;;;;;;11.11;100.00;99115.34;5243757;28;20041;-80
2024/03/29 07:28:33;;;;;;;3.28;0.82;;;;;;;11.23;100.00;99113.09;5246165;28;20036;-80
2024/03/29 07:31:07;;;;;;;1.48;0.60;;;;;;;11.16;100.00;99109.56;5246838;28;20032;-80
2024/03/29 07:33:39;;;;;;;2.03;0.70;;;;;;;11.26;100.00;99120.63;5244815;28;20434;-80
2024/03/29 07:36:10;;;;;;;3.17;0.88;;;;;;;11.34;100.00;99104.81;5245845;28;20039;-80
2024/03/29 07:38:43;;;;;;;2.55;0.65;;;;;;;11.28;100.00;99105.50;5226738;28;20041;-80
2024/03/29 07:41:15;;;;;;;2.13;0.68;;;;;;;11.35;100.00;99116.13;5244650;28;20037;-81
2024/03/29 07:44:03;;;;;;;2.00;0.98;;;;;;;11.55;100.00;99119.03;5242756;28;20139;-81
2024/03/29 07:46:37;;;;;;;3.20;0.63;;;;;;;11.39;100.00;99130.50;5245495;28;20839;-81
2024/03/29 07:49:09;;;;;;;1.67;0.60;;;;;;;11.42;100.00;99133.56;5244199;28;20471;-80
2024/03/29 07:51:41;;;;;;;1.27;0.50;;;;;;;11.31;100.00;99118.28;5246939;28;20027;-81
2024/03/29 07:54:14;;;;;;;2.20;0.80;;;;;;;11.47;100.00;99117.31;5227175;28;20164;-80
2024/03/29 07:56:45;;;;;;;2.08;0.73;;;;;;;11.48;100.00;99118.97;5246177;28;20486;-81
2024/03/29 07:59:19;;;;;;;1.90;0.65;;;;;;;11.52;100.00;99122.03;5243045;28;20043;-80
2024/03/29 08:01:52;;;;;;;2.17;0.90;;;;;;;11.55;100.00;99106.75;5245071;28;20636;-81
2024/03/29 08:04:24;;;;;;;2.00;0.80;;;;;;;11.64;100.00;99112.75;5251340;28;20033;-80
2024/03/29 08:06:56;;;;;;;2.83;0.65;;;;;;;11.65;100.00;99098.63;5250866;28;20047;-80
2024/03/29 08:09:28;;;;;;;2.85;0.90;;;;;;;11.69;100.00;99103.31;5248836;28;20036;-81
2024/03/29 08:11:59;;;;;;;1.77;0.65;;;;;;;11.69;100.00;99107.75;5250781;28;20040;-80
2024/03/29 08:14:32;;;;;;;2.03;0.80;;;;;;;11.77;100.00;99122.59;5250900;28;20040;-81
2024/03/29 08:17:07;;;;;;;1.42;0.80;;;;;;;11.80;100.00;99103.88;5251063;28;20037;-80
2024/03/29 08:19:42;;;;;;;1.38;0.60;;;;;;;12.03;100.00;99101.19;5249107;28;20040;-80
2024/03/29 08:22:14;;;;;;;2.03;0.80;;;;;;;11.98;100.00;99109.63;5250499;28;20029;-80
2024/03/29 08:24:46;;;;;;;3.40;1.02;;;;;;;12.07;100.00;99110.31;5249759;28;20032;-80
2024/03/29 08:27:18;;;;;;;2.25;0.70;;;;;;;12.13;100.00;99117.47;5253056;28;20064;-80
2024/03/29 08:29:50;;;;;;;2.90;1.10;;;;;;;12.26;100.00;99112.38;5249457;28;20037;-80
2024/03/29 08:32:22;;;;;;;1.83;0.68;;;;;;;12.32;100.00;99124.78;5250602;28;20044;-80
2024/03/29 08:34:54;;;;;;;1.85;0.60;;;;;;;12.44;100.00;99127.75;5250148;28;20033;-80
2024/03/29 08:37:26;;;;;;;2.22;0.80;;;;;;;12.46;100.00;99114.44;5249140;28;20032;-80
2024/03/29 08:39:58;;;;;;;1.75;0.50;;;;;;;12.42;100.00;99111.34;5250251;28;20041;-80
2024/03/29 08:42:33;;;;;;;1.85;0.75;;;;;;;12.47;100.00;99124.78;5250535;28;20025;-80
2024/03/29 08:45:07;;;;;;;3.75;0.90;;;;;;;12.50;100.00;99124.41;5249628;28;20037;-80
2024/03/29 08:47:39;;;;;;;1.48;0.60;;;;;;;12.50;100.00;99131.44;5252064;28;20029;-80
2024/03/29 08:50:11;;;;;;;3.25;1.08;;;;;;;12.49;100.00;99148.22;5250082;28;20036;-80
2024/03/29 08:52:44;;;;;;;1.88;0.80;;;;;;;12.48;100.00;99154.47;5249950;28;20039;-80
2024/03/29 08:55:16;;;;;;;1.55;0.63;;;;;;;12.55;100.00;99165.88;5231490;28;20056;-80
2024/03/29 08:57:48;;;;;;;2.45;0.95;;;;;;;12.55;100.00;99155.38;5250040;28;20104;-80
2024/03/29 09:00:20;;;;;;;2.55;0.73;;;;;;;12.62;100.00;99151.81;5253518;28;20171;-80
2024/03/29 09:02:52;;;;;;;2.28;1.00;;;;;;;12.68;100.00;99145.00;5252876;28;20037;-80
2024/03/29 09:05:30;;;;;;;1.92;0.80;;;;;;;12.81;100.00;99134.66;5254949;28;20398;-79
2024/03/29 09:08:02;;;;;;;2.85;1.08;;;;;;;12.82;100.00;99141.53;5244756;28;20403;-80
2024/03/29 09:10:34;;;;;;;2.85;1.17;;;;;;;13.04;100.00;99136.28;5246725;28;20044;-79
2024/03/29 09:13:07;;;;;;;2.55;1.05;;;;;;;13.18;100.00;99150.34;5247311;28;20033;-80
2024/03/29 09:15:39;;;;;;;2.97;0.95;;;;;;;13.23;100.00;99140.94;5244914;28;20033;-79
2024/03/29 09:18:19;;;;;;;1.35;0.75;;;;;;;13.25;100.00;99146.81;5245730;28;20028;-80
2024/03/29 09:21:00;;;;;;;2.72;0.90;;;;;;;13.37;100.00;99160.25;5245952;28;20577;-80
2024/03/29 09:23:32;;;;;;;2.28;0.93;;;;;;;13.14;100.00;99155.16;5246038;28;20589;-80
2024/03/29 09:26:04;;;;;;;2.55;1.00;;;;;;;13.23;100.00;99155.88;5243975;28;20043;-80
2024/03/29 09:28:36;;;;;;;2.38;1.00;;;;;;;13.25;100.00;99159.97;5244681;28;20028;-81
2024/03/29 09:31:09;;;;;;;2.95;1.08;;;;;;;13.29;100.00;99150.69;5228331;28;20483;-80
2024/03/29 09:33:41;;;;;;;2.00;1.00;;;;;;;13.41;100.00;99161.53;5247669;28;20036;-80
2024/03/29 09:36:13;;;;;;;2.63;1.15;;;;;;;13.50;100.00;99180.63;5248750;28;20025;-82
2024/03/29 09:38:45;;;;;;;2.28;1.20;;;;;;;13.72;100.00;99182.22;5242201;28;20047;-81
2024/03/29 09:41:19;;;;;;;2.10;1.02;;;;;;;13.71;97.33;99185.03;5244573;28;20033;-80
2024/03/29 09:43:54;;;;;;;2.75;1.30;;;;;;;13.82;98.99;99187.94;5246368;28;20057;-80
2024/03/29 09:46:28;;;;;;;2.78;1.10;;;;;;;13.97;97.91;99187.84;5225736;28;20532;-80
2024/03/29 09:49:02;;;;;;;3.47;1.30;;;;;;;14.20;100.00;99197.31;5244855;28;20045;-80
2024/03/29 09:51:34;;;;;;;2.30;0.85;;;;;;;14.18;93.68;99189.63;5244581;28;20482;-81
2024/03/29 09:54:12;;;;;;;2.33;1.00;;;;;;;14.49;95.61;99191.81;5243893;28;20043;-79
2024/03/29 09:56:44;;;;;;;3.40;1.00;;;;;;;14.48;92.96;99200.72;5243748;28;20498;-80
2024/03/29 09:59:16;;;;;;;2.38;1.00;;;;;;;14.54;93.49;99201.78;5244546;28;20037;-80
2024/03/29 10:01:51;;;;;;;3.50;1.20;;;;;;;14.90;93.56;99208.63;5245709;28;20379;-78
2024/03/29 10:04:24;;;;;;;1.88;1.10;;;;;;;14.98;90.48;99203.16;5246455;28;20032;-81
2024/03/29 10:06:56;;;;;;;4.50;1.20;;;;;;;14.97;85.90;99199.72;5246400;28;20052;-81
2024/03/29 10:09:32;;;;;;;2.80;1.15;;;;;;;14.97;86.83;99193.63;5246251;28;20040;-81
2024/03/29 10:12:04;;;;;;;3.30;1.40;;;;;;;14.93;85.82;99195.03;5242165;28;20485;-80
2024/03/29 10:14:52;;;;;;;3.15;1.08;;;;;;;15.26;85.34;99189.81;5234189;28;20701;-81
2024/03/29 10:17:23;;;;;;;4.05;1.40;;;;;;;15.07;83.37;99178.22;5240895;28;20032;-81
2024/03/29 10:20:00;;;;;;;2.05;1.00;;;;;;;15.32;83.73;99174.00;5244975;28;20403;-81
2024/03/29 10:22:43;;;;;;;3.97;1.20;;;;;;;15.54;79.79;99174.63;5245023;28;20695;-80
2024/03/29 10:25:15;;;;;;;4.07;0.95;;;;;;;15.40;78.60;99188.03;5243489;28;20036;-80
2024/03/29 10:27:49;;;;;;;2.00;0.95;;;;;;;15.51;77.92;99185.59;5244594;28;20037;-80
2024/03/29 10:30:21;;;;;;;;;;;;;;;16.30;73.97;99186.53;5245409;28;20033;-81
2024/03/29 10:32:56;;;;;;;3.42;0.77;;;;;;;15.63;71.79;99200.81;5244869;28;19917;-81
2024/03/29 10:35:27;;;;;;;2.20;0.88;;;;;;;15.46;70.43;99192.50;5245539;28;20041;-81
2024/03/29 10:38:02;;;;;;;4.57;0.90;;;;;;;15.58;72.08;99189.03;5246610;28;20783;-80
2024/03/29 10:40:36;;;;;;;3.35;1.15;;;;;;;15.36;69.48;99202.63;5246705;28;20040;-81
2024/03/29 10:43:16;;;;;;;1.63;0.88;;;;;;;15.51;70.16;99192.69;5244819;28;20033;-81
2024/03/29 10:45:49;;;;;;;2.17;0.93;;;;;;;15.60;69.42;99194.09;5243983;28;20036;-81
2024/03/29 10:48:22;;;;;;;1.55;0.70;;;;;;;15.60;68.17;99201.22;5240941;28;20032;-81
2024/03/29 10:50:58;;;;;;;1.97;0.73;;;;;;;15.87;68.47;99217.91;5243152;28;20220;-82
2024/03/29 10:53:31;;;;;;;2.47;0.80;;;;;;;15.61;66.60;99232.72;5243051;28;20345;-81
2024/03/29 10:56:07;;;;;;;1.02;0.43;;;;;;;15.55;65.65;99250.16;5242539;28;20479;-81
2024/03/29 10:58:41;;;;;;;1.50;0.80;;;;;;;15.56;66.24;99240.41;5243616;28;20028;-80
2024/03/29 11:01:15;;;;;;;1.65;0.63;;;;;;;15.54;64.47;99247.72;5242004;28;20033;-81
2024/03/29 11:03:54;;;;;;;1.58;0.63;;;;;;;15.66;64.80;99255.88;5243218;28;20036;-81
2024/03/29 11:06:29;;;;;;;1.60;0.73;;;;;;;15.78;65.04;99243.69;5244995;28;20132;-80
2024/03/29 11:09:01;;;;;;;1.58;0.70;;;;;;;15.80;62.92;99218.72;5247412;28;20033;-80
2024/03/29 11:11:36;;;;;;;2.13;0.80;;;;;;;16.17;63.56;99223.56;5245315;28;20249;-81
2024/03/29 11:14:12;;;;;;;2.03;0.80;;;;;;;16.21;62.29;99201.81;5240911;28;20045;-81
2024/03/29 11:16:45;;;;;;;2.97;0.70;;;;;;;16.20;62.21;99188.78;5227209;28;20072;-81
2024/03/29 11:19:17;;;;;;;;;;;;;;;17.03;59.67;99189.72;5249877;28;20025;-80
2024/03/29 11:21:50;;;;;;;1.73;0.80;;;;;;;16.20;61.15;99194.88;5247070;28;19921;-81
2024/03/29 11:24:28;;;;;;;1.48;0.82;;;;;;;16.25;63.87;99186.34;5247555;28;20040;-81
2024/03/29 11:27:10;;;;;;;1.30;0.77;;;;;;;16.16;59.64;99201.59;5241526;28;20651;-81
2024/03/29 11:29:43;;;;;;;0.88;0.40;;;;;;;16.11;59.72;99227.84;5245515;28;20055;-81
2024/03/29 11:32:16;;;;;;;1.50;0.60;;;;;;;16.19;58.27;99217.06;5246984;28;20036;-81
2024/03/29 11:34:50;;;;;;;2.55;0.60;;;;;;;16.47;57.81;99222.06;5249236;28;20028;-83
2024/03/29 11:37:30;;;;;;;0.95;0.40;;;;;;;16.64;57.58;99209.19;5246939;28;20040;-80
2024/03/29 11:40:03;;;;;;;1.58;0.60;;;;;;;16.75;56.59;99208.56;5252301;28;20312;-81
2024/03/29 11:42:44;;;;;;;1.90;0.50;;;;;;;17.31;57.44;99219.47;5251184;28;20028;-82
2024/03/29 11:45:16;;;;;;;1.83;0.82;;;;;;;17.15;54.68;99210.19;5247465;28;20304;-82
2024/03/29 11:47:50;;;;;;;1.07;0.47;;;;;;;17.13;54.35;99220.19;5249844;28;20391;-81
2024/03/29 11:50:22;;;;;;;1.23;0.40;;;;;;;17.00;54.10;99223.72;5229315;28;20048;-81
2024/03/29 11:52:54;;;;;;;1.17;0.47;;;;;;;17.18;55.11;99231.75;5247678;28;20036;-80
2024/03/29 11:55:27;;;;;;;0.90;0.40;;;;;;;17.17;54.88;99232.78;5249578;28;20024;-81
2024/03/29 11:57:59;;;;;;;0.90;0.47;;;;;;;17.15;54.84;99242.75;5249988;28;20594;-81
2024/03/29 12:00:31;;;;;;;0.75;0.40;;;;;;;17.22;54.26;99234.78;5248481;28;20093;-82
2024/03/29 12:03:03;;;;;;;1.10;0.40;;;;;;;17.52;55.86;99241.09;5248949;28;20037;-81